createdAt,value
2023-02-06T00:03:01.455Z,3.27
2023-02-06T00:06:07.252Z,3.63
2023-02-06T00:09:09.842Z,3.40
2023-02-06T00:12:14.445Z,3.43
2023-02-06T00:15:16.615Z,3.30
2023-02-06T00:18:18.675Z,2.97
2023-02-06T00:21:24.705Z,3.37
2023-02-06T00:24:26.738Z,3.53
2023-02-06T00:27:28.716Z,3.03
2023-02-06T00:30:31.430Z,3.40
2023-02-06T00:33:34.308Z,3.40
2023-02-06T00:36:36.445Z,3.50
2023-02-06T00:39:38.535Z,3.20
2023-02-06T00:42:40.773Z,3.30
2023-02-06T00:45:42.831Z,3.50
2023-02-06T00:48:44.791Z,3.50
2023-02-06T00:51:46.777Z,2.87
2023-02-06T00:54:48.741Z,3.10
2023-02-06T00:57:50.755Z,3.27
2023-02-06T01:00:53.473Z,3.67
2023-02-06T01:03:55.454Z,2.93
2023-02-06T01:06:57.501Z,3.80
2023-02-06T01:09:59.429Z,4.03
2023-02-06T01:13:01.548Z,4.30
2023-02-06T01:16:03.924Z,4.00
2023-02-06T01:19:06.057Z,4.30
2023-02-06T01:22:08.007Z,4.40
2023-02-06T01:25:10.478Z,4.13
2023-02-06T01:28:12.516Z,4.07
2023-02-06T01:31:21.284Z,4.30
2023-02-06T01:34:23.240Z,4.50
2023-02-06T01:37:25.352Z,4.43
2023-02-06T01:40:27.255Z,4.40
2023-02-06T01:43:33.191Z,4.40
2023-02-06T01:46:35.496Z,4.33
2023-02-06T01:49:41.641Z,4.13
2023-02-06T01:52:43.609Z,3.73
2023-02-06T01:55:47.021Z,3.83
2023-02-06T01:58:52.465Z,3.60
2023-02-06T02:01:54.550Z,3.70
2023-02-06T02:04:57.412Z,3.80
2023-02-06T02:08:07.419Z,3.37
2023-02-06T02:11:12.218Z,3.97
2023-02-06T02:14:15.560Z,4.10
2023-02-06T02:17:27.975Z,3.87
2023-02-06T02:20:53.417Z,4.00
2023-02-06T02:24:18.069Z,3.90
2023-02-06T02:28:05.504Z,4.20
2023-02-06T02:31:27.330Z,3.50
2023-02-06T02:34:47.545Z,3.53
2023-02-06T02:38:19.802Z,4.03
2023-02-06T02:41:48.165Z,3.70
2023-02-06T02:45:21.039Z,3.23
2023-02-06T02:48:29.114Z,4.00
2023-02-06T02:51:32.424Z,3.70
2023-02-06T02:54:34.957Z,4.03
2023-02-06T02:57:36.944Z,3.80
2023-02-06T03:00:43.886Z,4.03
2023-02-06T03:03:47.609Z,4.30
2023-02-06T03:07:13.449Z,3.97
2023-02-06T03:10:38.493Z,4.10
2023-02-06T03:14:10.832Z,3.70
2023-02-06T03:17:16.869Z,4.00
2023-02-06T03:20:20.022Z,3.77
2023-02-06T03:23:28.927Z,3.67
2023-02-06T03:26:32.536Z,3.67
2023-02-06T03:29:35.283Z,4.00
2023-02-06T03:32:42.312Z,3.53
2023-02-06T03:35:44.547Z,3.60
2023-02-06T03:38:48.998Z,3.90
2023-02-06T03:41:51.933Z,3.90
2023-02-06T03:45:16.211Z,3.83
2023-02-06T03:48:30.319Z,3.83
2023-02-06T03:51:37.421Z,3.93
2023-02-06T03:54:45.670Z,3.83
2023-02-06T03:57:55.941Z,4.43
2023-02-06T04:00:58.390Z,4.03
2023-02-06T04:04:00.459Z,4.80
2023-02-06T04:07:07.748Z,3.70
2023-02-06T04:10:09.904Z,4.07
2023-02-06T04:13:12.395Z,4.60
2023-02-06T04:16:14.425Z,4.50
2023-02-06T04:19:16.574Z,4.87
2023-02-06T04:22:19.015Z,4.57
2023-02-06T04:25:20.927Z,4.83
2023-02-06T04:28:23.028Z,5.00
2023-02-06T04:31:25.092Z,4.30
2023-02-06T04:34:27.161Z,5.23
2023-02-06T04:37:29.085Z,4.37
2023-02-06T04:40:31.415Z,4.97
2023-02-06T04:43:34.045Z,4.40
2023-02-06T04:46:35.977Z,4.67
2023-02-06T04:49:37.960Z,4.43
2023-02-06T04:52:39.914Z,4.87
2023-02-06T04:55:41.990Z,5.20
2023-02-06T04:58:43.934Z,5.63
2023-02-06T05:01:45.913Z,4.77
2023-02-06T05:04:48.061Z,4.87
2023-02-06T05:07:50.449Z,5.23
2023-02-06T05:10:52.815Z,4.77
2023-02-06T05:13:54.773Z,5.07
2023-02-06T05:16:56.786Z,5.87
2023-02-06T05:19:59.006Z,5.73
2023-02-06T05:23:01.091Z,5.67
2023-02-06T05:26:03.905Z,5.30
2023-02-06T05:29:06.078Z,5.03
2023-02-06T05:32:08.069Z,5.77
2023-02-06T05:35:10.131Z,6.10
2023-02-06T05:38:12.662Z,5.17
2023-02-06T05:41:15.475Z,5.60
2023-02-06T05:44:17.409Z,5.93
2023-02-06T05:47:19.529Z,5.23
2023-02-06T05:50:21.573Z,5.73
2023-02-06T05:53:24.017Z,5.37
2023-02-06T05:56:25.972Z,5.83
2023-02-06T05:59:28.008Z,6.17
2023-02-06T06:02:30.017Z,5.83
2023-02-06T06:05:32.234Z,6.17
2023-02-06T06:08:34.241Z,6.07
2023-02-06T06:11:36.674Z,6.40
2023-02-06T06:14:38.769Z,5.83
2023-02-06T06:17:40.869Z,6.13
2023-02-06T06:20:42.894Z,6.93
2023-02-06T06:23:44.953Z,6.40
2023-02-06T06:26:46.967Z,6.63
2023-02-06T06:29:49.046Z,6.30
2023-02-06T06:32:50.974Z,7.03
2023-02-06T06:35:53.342Z,7.00
2023-02-06T06:38:55.331Z,7.43
2023-02-06T06:41:57.307Z,7.67
2023-02-06T06:44:59.219Z,5.97
2023-02-06T06:48:01.418Z,6.57
2023-02-06T06:51:03.439Z,6.33
2023-02-06T06:54:05.371Z,5.90
2023-02-06T06:57:07.559Z,6.60
2023-02-06T07:00:10.420Z,6.73
2023-02-06T07:03:12.761Z,6.30
2023-02-06T07:06:15.065Z,7.90
2023-02-06T07:09:17.111Z,8.20
2023-02-06T07:12:19.610Z,8.17
2023-02-06T07:15:21.476Z,8.23
2023-02-06T07:18:23.378Z,7.87
2023-02-06T07:21:25.537Z,8.23
2023-02-06T07:24:27.595Z,8.03
2023-02-06T07:27:29.626Z,8.37
2023-02-06T07:30:31.959Z,8.47
2023-02-06T07:33:34.428Z,8.40
2023-02-06T07:36:36.560Z,8.10
2023-02-06T07:39:38.653Z,7.87
2023-02-06T07:42:40.707Z,8.27
2023-02-06T07:45:42.772Z,8.57
2023-02-06T07:48:45.344Z,8.17
2023-02-06T07:51:47.242Z,8.33
2023-02-06T07:54:49.612Z,8.07
2023-02-06T07:57:51.811Z,7.70
2023-02-06T08:00:55.054Z,8.13
2023-02-06T08:03:57.225Z,7.27
2023-02-06T08:06:59.344Z,7.03
2023-02-06T08:10:01.320Z,6.83
2023-02-06T08:13:04.062Z,7.37
2023-02-06T08:16:08.194Z,7.10
2023-02-06T08:19:11.356Z,6.67
2023-02-06T08:22:13.298Z,7.17
2023-02-06T08:25:15.304Z,7.67
2023-02-06T08:28:17.311Z,7.57
2023-02-06T08:31:26.466Z,8.30
2023-02-06T08:34:28.710Z,9.70
2023-02-06T08:37:32.493Z,9.47
2023-02-06T08:40:34.431Z,8.60
2023-02-06T08:43:36.707Z,8.47
2023-02-06T08:46:44.318Z,7.50
2023-02-06T08:49:46.333Z,7.67
2023-02-06T08:52:48.288Z,7.67
2023-02-06T08:56:03.683Z,7.53
2023-02-06T08:59:08.790Z,7.70
2023-02-06T09:02:12.336Z,6.83
2023-02-06T09:05:15.681Z,7.10
2023-02-06T09:08:18.020Z,7.57
2023-02-06T09:11:22.117Z,7.30
2023-02-06T09:14:24.181Z,6.63
2023-02-06T09:17:26.163Z,7.30
2023-02-06T09:20:28.163Z,6.33
2023-02-06T09:23:30.215Z,7.03
2023-02-06T09:26:40.625Z,6.73
2023-02-06T09:29:48.494Z,6.63
2023-02-06T09:32:51.134Z,6.60
2023-02-06T09:36:22.776Z,6.63
2023-02-06T09:39:25.318Z,7.03
2023-02-06T09:42:35.503Z,6.03
2023-02-06T09:45:37.783Z,6.50
2023-02-06T09:48:40.912Z,7.73
2023-02-06T09:51:51.784Z,7.53
2023-02-06T09:55:15.007Z,7.13
2023-02-06T09:58:45.989Z,6.77
2023-02-06T10:01:52.052Z,6.20
2023-02-06T10:05:17.996Z,6.10
2023-02-06T10:08:26.492Z,5.90
2023-02-06T10:11:40.808Z,5.83
2023-02-06T10:14:59.907Z,5.83
2023-02-06T10:18:17.245Z,7.40
2023-02-06T10:21:41.811Z,7.77
2023-02-06T10:24:46.176Z,7.37
2023-02-06T10:27:55.298Z,6.30
2023-02-06T10:31:27.255Z,7.27
2023-02-06T10:34:44.383Z,5.60
2023-02-06T10:38:26.026Z,6.07
2023-02-06T10:41:31.790Z,5.60
2023-02-06T10:44:51.686Z,5.90
2023-02-06T10:48:19.803Z,4.80
2023-02-06T10:51:27.393Z,6.20
2023-02-06T10:54:40.872Z,5.97
2023-02-06T10:57:44.021Z,6.10
2023-02-06T11:00:47.176Z,5.23
2023-02-06T11:04:15.964Z,6.40
2023-02-06T11:07:28.874Z,6.23
2023-02-06T11:10:32.842Z,6.83
2023-02-06T11:13:37.375Z,7.00
2023-02-06T11:16:39.378Z,6.83
2023-02-06T11:19:44.547Z,6.70
2023-02-06T11:22:52.819Z,6.23
2023-02-06T11:26:15.265Z,6.60
2023-02-06T11:29:28.706Z,6.07
2023-02-06T11:32:43.955Z,6.10
2023-02-06T11:35:56.257Z,6.97
2023-02-06T11:39:01.530Z,6.73
2023-02-06T11:42:15.763Z,6.67
2023-02-06T11:45:25.612Z,6.77
2023-02-06T11:48:39.485Z,7.10
2023-02-06T11:51:51.775Z,6.10
2023-02-06T11:55:02.553Z,7.17
2023-02-06T11:58:06.428Z,7.00
2023-02-06T12:01:18.199Z,6.57
2023-02-06T12:04:26.203Z,6.70
2023-02-06T12:07:45.182Z,6.77
2023-02-06T12:10:59.105Z,6.80
2023-02-06T12:14:40.811Z,6.40
2023-02-06T12:17:55.654Z,6.30
2023-02-06T12:21:21.336Z,6.30
2023-02-06T12:24:36.250Z,6.60
2023-02-06T12:27:39.749Z,6.37
2023-02-06T12:30:57.114Z,6.50
2023-02-06T12:34:14.617Z,6.23
2023-02-06T12:37:22.089Z,6.73
2023-02-06T12:40:50.539Z,6.57
2023-02-06T12:43:57.091Z,5.97
2023-02-06T12:47:05.125Z,6.43
2023-02-06T12:50:24.293Z,6.83
2023-02-06T12:53:31.476Z,6.57
2023-02-06T12:56:45.012Z,5.90
2023-02-06T13:00:09.854Z,6.30
2023-02-06T13:03:23.297Z,7.17
2023-02-06T13:06:31.961Z,7.07
2023-02-06T13:09:38.902Z,8.67
2023-02-06T13:12:42.288Z,7.60
2023-02-06T13:15:54.317Z,6.67
2023-02-06T13:19:02.954Z,6.17
2023-02-06T13:22:10.815Z,5.97
2023-02-06T13:25:30.917Z,6.40
2023-02-06T13:28:41.528Z,6.97
2023-02-06T13:31:43.642Z,6.10
2023-02-06T13:34:54.696Z,6.33
2023-02-06T13:38:36.197Z,6.63
2023-02-06T13:41:38.255Z,6.03
2023-02-06T13:44:40.130Z,6.87
2023-02-06T13:47:57.979Z,6.60
2023-02-06T13:51:08.897Z,6.17
2023-02-06T13:54:17.456Z,6.37
2023-02-06T13:57:32.894Z,6.53
2023-02-06T14:00:42.502Z,7.50
2023-02-06T14:03:47.869Z,6.00
2023-02-06T14:07:11.155Z,6.87
2023-02-06T14:10:23.332Z,6.30
2023-02-06T14:13:37.211Z,5.57
2023-02-06T14:16:50.493Z,6.90
2023-02-06T14:20:00.170Z,8.23
2023-02-06T14:23:20.650Z,7.13
2023-02-06T14:26:41.141Z,6.90
2023-02-06T14:30:22.498Z,7.20
2023-02-06T14:33:43.284Z,6.50
2023-02-06T14:37:22.665Z,6.47
2023-02-06T14:40:27.120Z,5.87
2023-02-06T14:43:32.452Z,5.87
2023-02-06T14:46:34.640Z,5.97
2023-02-06T14:49:37.234Z,5.87
2023-02-06T14:52:40.381Z,5.53
2023-02-06T14:55:44.723Z,6.17
2023-02-06T14:58:47.551Z,5.37
2023-02-06T15:01:52.169Z,5.40
2023-02-06T15:04:54.451Z,5.37
2023-02-06T15:08:04.143Z,6.40
2023-02-06T15:11:19.631Z,5.57
2023-02-06T15:14:27.274Z,5.23
2023-02-06T15:17:30.476Z,5.50
2023-02-06T15:20:55.572Z,5.20
2023-02-06T15:24:35.290Z,5.87
2023-02-06T15:27:38.413Z,5.70
2023-02-06T15:30:40.758Z,5.30
2023-02-06T15:33:42.947Z,5.87
2023-02-06T15:36:45.081Z,5.50
2023-02-06T15:39:47.271Z,5.93
2023-02-06T15:42:50.503Z,5.93
2023-02-06T15:45:56.249Z,6.07
2023-02-06T15:48:58.710Z,5.53
2023-02-06T15:52:02.754Z,6.07
2023-02-06T15:55:05.299Z,6.63
2023-02-06T15:58:07.325Z,6.57
2023-02-06T16:01:17.872Z,6.83
2023-02-06T16:04:29.463Z,6.70
2023-02-06T16:07:33.509Z,7.03
2023-02-06T16:10:39.896Z,5.90
2023-02-06T16:13:41.985Z,6.03
2023-02-06T16:16:56.462Z,6.33
2023-02-06T16:20:32.419Z,6.70
2023-02-06T16:24:14.801Z,6.30
2023-02-06T16:27:28.170Z,6.97
2023-02-06T16:30:33.477Z,6.90
2023-02-06T16:33:42.081Z,7.50
2023-02-06T16:36:46.101Z,5.97
2023-02-06T16:39:48.192Z,7.33
2023-02-06T16:42:50.744Z,7.20
2023-02-06T16:45:52.838Z,6.73
2023-02-06T16:48:55.778Z,7.50
2023-02-06T16:51:57.747Z,6.60
2023-02-06T16:55:01.173Z,7.80
2023-02-06T16:58:03.528Z,7.30
2023-02-06T17:01:08.813Z,6.03
2023-02-06T17:04:10.746Z,6.80
2023-02-06T17:07:15.162Z,6.67
2023-02-06T17:10:21.688Z,6.80
2023-02-06T17:13:24.967Z,6.63
2023-02-06T17:16:27.906Z,6.03
2023-02-06T17:19:30.213Z,6.73
2023-02-06T17:22:32.230Z,6.03
2023-02-06T17:25:34.383Z,7.33
2023-02-06T17:28:37.291Z,7.27
2023-02-06T17:31:39.546Z,7.90
2023-02-06T17:34:41.551Z,7.23
2023-02-06T17:37:43.583Z,8.07
2023-02-06T17:40:46.084Z,8.97
2023-02-06T17:43:48.369Z,7.63
2023-02-06T17:46:51.973Z,6.93
2023-02-06T17:49:54.277Z,7.83
2023-02-06T17:52:56.407Z,8.07
2023-02-06T17:55:58.483Z,7.83
2023-02-06T17:59:00.420Z,7.43
2023-02-06T18:02:02.958Z,7.40
2023-02-06T18:05:05.962Z,8.27
2023-02-06T18:08:08.474Z,7.77
2023-02-06T18:11:18.782Z,7.60
2023-02-06T18:14:22.142Z,7.20
2023-02-06T18:17:24.175Z,8.17
2023-02-06T18:20:26.219Z,7.10
2023-02-06T18:23:28.082Z,7.73
2023-02-06T18:26:30.228Z,8.13
2023-02-06T18:29:48.863Z,7.80
2023-02-06T18:32:52.075Z,7.73
2023-02-06T18:35:53.928Z,8.50
2023-02-06T18:38:57.194Z,8.70
2023-02-06T18:42:17.982Z,8.70
2023-02-06T18:45:23.373Z,8.40
2023-02-06T18:48:26.074Z,8.90
2023-02-06T18:51:30.925Z,10.57
2023-02-06T18:54:35.839Z,9.73
2023-02-06T18:57:38.500Z,9.37
2023-02-06T19:00:42.675Z,9.37
2023-02-06T19:03:45.574Z,10.43
2023-02-06T19:06:48.711Z,9.50
2023-02-06T19:09:50.898Z,9.17
2023-02-06T19:12:53.236Z,9.97
2023-02-06T19:16:13.199Z,8.77
2023-02-06T19:19:15.354Z,10.17
2023-02-06T19:22:17.549Z,9.87
2023-02-06T19:25:21.800Z,9.17
2023-02-06T19:28:24.438Z,9.53
2023-02-06T19:31:27.248Z,9.67
2023-02-06T19:34:29.207Z,9.27
2023-02-06T19:37:31.916Z,9.67
2023-02-06T19:40:36.427Z,9.77
2023-02-06T19:43:39.581Z,10.33
2023-02-06T19:46:41.612Z,9.80
2023-02-06T19:49:47.908Z,10.27
2023-02-06T19:52:50.657Z,9.50
2023-02-06T19:55:52.676Z,8.90
2023-02-06T19:58:56.277Z,8.70
2023-02-06T20:02:01.795Z,9.73
2023-02-06T20:05:04.260Z,10.10
2023-02-06T20:08:06.397Z,10.73
2023-02-06T20:11:14.605Z,9.90
2023-02-06T20:14:18.064Z,10.27
2023-02-06T20:17:20.051Z,10.17
2023-02-06T20:20:22.085Z,10.63
2023-02-06T20:23:24.293Z,10.27
2023-02-06T20:26:29.313Z,10.03
2023-02-06T20:29:35.083Z,10.10
2023-02-06T20:32:37.094Z,10.60
2023-02-06T20:35:45.529Z,10.03
2023-02-06T20:38:49.808Z,10.17
2023-02-06T20:41:51.855Z,10.90
2023-02-06T20:44:55.799Z,10.63
2023-02-06T20:47:57.763Z,10.07
2023-02-06T20:51:02.015Z,10.10
2023-02-06T20:54:04.128Z,10.60
2023-02-06T20:57:06.129Z,9.47
2023-02-06T21:00:09.130Z,9.67
2023-02-06T21:03:11.235Z,10.10
2023-02-06T21:06:15.005Z,9.73
2023-02-06T21:09:19.204Z,10.87
2023-02-06T21:12:21.257Z,11.07
2023-02-06T21:15:23.898Z,10.40
2023-02-06T21:18:29.923Z,10.43
2023-02-06T21:21:32.547Z,10.53
2023-02-06T21:24:34.629Z,10.17
2023-02-06T21:27:37.822Z,9.90
2023-02-06T21:30:40.318Z,10.10
2023-02-06T21:33:42.734Z,9.70
2023-02-06T21:36:44.869Z,10.40
2023-02-06T21:39:50.833Z,8.87
2023-02-06T21:42:53.164Z,10.60
2023-02-06T21:45:57.641Z,10.63
2023-02-06T21:49:01.175Z,10.67
2023-02-06T21:52:03.163Z,10.70
2023-02-06T21:55:07.560Z,10.90
2023-02-06T21:58:10.829Z,11.03
2023-02-06T22:01:21.026Z,10.77
2023-02-06T22:04:24.125Z,9.67
2023-02-06T22:07:26.289Z,13.20
2023-02-06T22:10:28.625Z,11.10
2023-02-06T22:13:30.766Z,10.47
2023-02-06T22:16:34.894Z,10.60
2023-02-06T22:19:37.891Z,10.27
2023-02-06T22:22:41.492Z,10.90
2023-02-06T22:25:48.315Z,11.17
2023-02-06T22:28:50.332Z,9.90
2023-02-06T22:31:52.205Z,10.50
2023-02-06T22:34:54.311Z,9.63
2023-02-06T22:37:56.857Z,10.00
2023-02-06T22:41:03.906Z,9.93
2023-02-06T22:44:06.641Z,10.20
2023-02-06T22:47:08.566Z,10.93
2023-02-06T22:50:10.502Z,9.93
2023-02-06T22:53:30.994Z,10.93
2023-02-06T22:56:37.312Z,10.20
2023-02-06T22:59:40.025Z,10.27
2023-02-06T23:02:42.012Z,11.03
2023-02-06T23:05:44.024Z,10.23
2023-02-06T23:08:45.984Z,10.70
2023-02-06T23:11:48.867Z,11.10
2023-02-06T23:14:50.733Z,11.20
2023-02-06T23:17:53.089Z,9.87
2023-02-06T23:21:04.782Z,10.67
2023-02-06T23:24:08.880Z,11.30
2023-02-06T23:27:10.899Z,10.43
2023-02-06T23:30:13.895Z,10.63
2023-02-06T23:33:15.893Z,10.97
2023-02-06T23:36:20.185Z,10.60
2023-02-06T23:39:22.082Z,10.83
2023-02-06T23:42:24.128Z,11.30
2023-02-06T23:45:26.644Z,11.23
2023-02-06T23:48:28.609Z,9.50
2023-02-06T23:51:30.629Z,10.00
2023-02-06T23:54:33.014Z,11.17
2023-02-06T23:57:36.854Z,10.33
